createdAt,value
2019-04-29T00:02:25.496Z,6.40
2019-04-29T00:04:57.818Z,6.40
2019-04-29T00:07:30.106Z,6.30
2019-04-29T00:10:01.519Z,6.20
2019-04-29T00:12:33.473Z,6.10
2019-04-29T00:17:54.314Z,5.90
2019-04-29T00:20:32.197Z,5.80
2019-04-29T00:23:03.842Z,5.70
2019-04-29T00:25:35.253Z,5.60
2019-04-29T00:28:06.744Z,5.60
2019-04-29T00:30:38.138Z,5.50
2019-04-29T00:33:09.573Z,5.40
2019-04-29T00:35:40.968Z,5.30
2019-04-29T00:38:37.712Z,5.20
2019-04-29T00:41:27.976Z,5.10
2019-04-29T00:44:04.861Z,5.00
2019-04-29T00:46:36.290Z,5.00
2019-04-29T00:49:07.638Z,4.90
2019-04-29T00:51:39.024Z,4.90
2019-04-29T00:54:17.666Z,4.80
2019-04-29T00:56:48.980Z,4.70
2019-04-29T00:59:21.475Z,4.60
2019-04-29T01:01:52.880Z,4.60
2019-04-29T01:04:24.348Z,4.50
2019-04-29T01:06:55.800Z,4.50
2019-04-29T01:09:27.812Z,4.40
2019-04-29T01:11:59.151Z,4.40
2019-04-29T01:14:30.499Z,4.30
2019-04-29T01:17:01.848Z,4.30
2019-04-29T01:19:33.234Z,4.30
2019-04-29T01:22:04.586Z,4.30
2019-04-29T01:24:35.945Z,4.20
2019-04-29T01:27:16.718Z,4.20
2019-04-29T01:29:48.061Z,4.10
2019-04-29T01:32:19.380Z,4.10
2019-04-29T01:34:55.378Z,4.10
2019-04-29T01:37:43.599Z,4.10
2019-04-29T01:40:30.265Z,4.10
2019-04-29T01:43:01.617Z,4.10
2019-04-29T01:45:33.054Z,4.10
2019-04-29T01:48:04.367Z,4.00
2019-04-29T01:50:36.677Z,4.00
2019-04-29T01:53:07.991Z,4.00
2019-04-29T01:55:39.361Z,4.00
2019-04-29T01:58:10.682Z,4.00
2019-04-29T02:00:42.004Z,4.00
2019-04-29T02:03:13.403Z,3.90
2019-04-29T02:05:44.722Z,4.00
2019-04-29T02:08:16.085Z,4.00
2019-04-29T02:10:47.455Z,4.00
2019-04-29T02:13:18.825Z,4.00
2019-04-29T02:15:50.137Z,4.00
2019-04-29T02:18:21.536Z,4.00
2019-04-29T02:20:52.952Z,4.00
2019-04-29T02:23:33.331Z,4.00
2019-04-29T02:26:05.277Z,4.00
2019-04-29T02:28:36.641Z,4.00
2019-04-29T02:31:25.740Z,4.00
2019-04-29T02:33:57.111Z,3.90
2019-04-29T02:36:30.081Z,3.90
2019-04-29T02:39:20.173Z,3.90
2019-04-29T02:42:09.417Z,3.90
2019-04-29T02:44:40.801Z,3.90
2019-04-29T02:47:12.125Z,3.90
2019-04-29T02:49:43.485Z,3.90
2019-04-29T02:52:14.775Z,3.90
2019-04-29T02:54:46.886Z,3.90
2019-04-29T02:57:35.983Z,3.90
2019-04-29T03:00:29.479Z,3.90
2019-04-29T03:03:07.700Z,3.90
2019-04-29T03:05:48.729Z,3.90
2019-04-29T03:08:20.079Z,3.90
2019-04-29T03:10:52.014Z,3.90
2019-04-29T03:13:23.350Z,3.90
2019-04-29T03:15:54.679Z,3.90
2019-04-29T03:18:28.172Z,4.00
2019-04-29T03:21:12.131Z,4.00
2019-04-29T03:23:43.583Z,4.10
2019-04-29T03:26:14.885Z,4.10
2019-04-29T03:28:46.306Z,4.10
2019-04-29T03:31:17.766Z,4.20
2019-04-29T03:33:49.049Z,4.20
2019-04-29T03:36:20.381Z,4.20
2019-04-29T03:38:51.712Z,4.30
2019-04-29T03:41:23.055Z,4.30
2019-04-29T03:43:54.396Z,4.30
2019-04-29T03:46:25.718Z,4.30
2019-04-29T03:48:57.141Z,4.30
2019-04-29T03:51:28.438Z,4.30
2019-04-29T03:53:59.797Z,4.30
2019-04-29T03:56:31.198Z,4.30
2019-04-29T03:59:02.554Z,4.20
2019-04-29T04:01:39.083Z,4.20
2019-04-29T04:04:24.120Z,4.20
2019-04-29T04:07:14.406Z,4.20
2019-04-29T04:09:45.747Z,4.10
2019-04-29T04:12:17.055Z,4.10
2019-04-29T04:14:48.389Z,4.10
2019-04-29T04:17:28.750Z,4.10
2019-04-29T04:20:00.086Z,4.20
2019-04-29T04:22:46.492Z,4.20
2019-04-29T04:25:18.618Z,4.30
2019-04-29T04:27:49.947Z,4.30
2019-04-29T04:30:21.581Z,4.40
2019-04-29T04:32:52.924Z,4.50
2019-04-29T04:35:24.439Z,4.50
2019-04-29T04:37:55.746Z,4.50
2019-04-29T04:40:40.263Z,4.60
2019-04-29T04:43:11.586Z,4.70
2019-04-29T04:45:43.048Z,4.70
2019-04-29T04:48:14.389Z,4.80
2019-04-29T04:50:45.782Z,4.90
2019-04-29T04:53:17.113Z,5.00
2019-04-29T04:55:50.109Z,5.10
2019-04-29T04:58:21.434Z,5.10
2019-04-29T05:00:53.053Z,5.20
2019-04-29T05:03:24.776Z,5.30
2019-04-29T05:06:01.587Z,5.40
2019-04-29T05:08:32.855Z,5.50
2019-04-29T05:11:04.209Z,5.60
2019-04-29T05:13:35.583Z,5.60
2019-04-29T05:16:06.948Z,5.70
2019-04-29T05:18:38.298Z,5.80
2019-04-29T05:21:09.708Z,5.90
2019-04-29T05:23:41.707Z,6.00
2019-04-29T05:26:13.253Z,6.10
2019-04-29T05:28:44.620Z,6.20
2019-04-29T05:31:15.962Z,6.30
2019-04-29T05:33:47.376Z,6.50
2019-04-29T05:36:38.265Z,6.60
2019-04-29T05:39:21.932Z,6.70
2019-04-29T05:41:53.266Z,6.80
2019-04-29T05:44:49.636Z,6.80
2019-04-29T05:47:31.423Z,6.90
2019-04-29T05:50:20.659Z,7.00
2019-04-29T05:52:57.844Z,7.20
2019-04-29T05:55:30.174Z,7.30
2019-04-29T05:58:11.427Z,7.50
2019-04-29T06:00:53.252Z,7.60
2019-04-29T06:03:24.596Z,7.80
2019-04-29T06:05:55.901Z,8.00
2019-04-29T06:08:27.538Z,8.20
2019-04-29T06:10:58.947Z,8.40
2019-04-29T06:13:30.297Z,8.50
2019-04-29T06:16:01.636Z,8.60
2019-04-29T06:18:33.109Z,8.80
2019-04-29T06:21:09.189Z,8.90
2019-04-29T06:23:37.655Z,9.00
2019-04-29T06:26:08.977Z,9.20
2019-04-29T06:28:40.337Z,9.30
2019-04-29T06:31:11.643Z,9.40
2019-04-29T06:33:43.121Z,9.50
2019-04-29T06:36:14.555Z,9.60
2019-04-29T06:38:45.897Z,9.70
2019-04-29T06:41:17.218Z,9.80
2019-04-29T06:43:48.608Z,9.90
2019-04-29T06:46:19.945Z,10.00
2019-04-29T06:48:51.431Z,10.10
2019-04-29T06:51:22.776Z,10.20
2019-04-29T06:53:54.115Z,10.30
2019-04-29T06:56:25.451Z,10.30
2019-04-29T06:58:56.856Z,10.40
2019-04-29T07:01:28.202Z,10.50
2019-04-29T07:04:01.207Z,10.60
2019-04-29T07:06:32.812Z,10.80
2019-04-29T07:09:05.134Z,10.90
2019-04-29T07:11:38.273Z,11.10
2019-04-29T07:14:09.584Z,11.20
2019-04-29T07:16:41.041Z,11.30
2019-04-29T07:19:12.511Z,11.30
2019-04-29T07:21:46.998Z,11.40
2019-04-29T07:24:20.022Z,11.50
2019-04-29T07:26:49.921Z,11.50
2019-04-29T07:29:25.433Z,11.50
2019-04-29T07:31:54.297Z,11.60
2019-04-29T07:34:29.040Z,11.70
2019-04-29T07:36:59.461Z,11.70
2019-04-29T07:39:31.813Z,11.70
2019-04-29T07:42:04.064Z,11.60
2019-04-29T07:44:44.657Z,11.60
2019-04-29T07:47:16.003Z,11.70
2019-04-29T07:49:51.496Z,11.80
2019-04-29T07:52:20.489Z,12.00
2019-04-29T07:54:55.205Z,12.10
2019-04-29T07:57:24.916Z,12.10
2019-04-29T07:59:56.279Z,12.20
2019-04-29T08:02:27.766Z,12.40
2019-04-29T08:04:59.147Z,12.50
2019-04-29T08:07:31.603Z,12.60
2019-04-29T08:10:04.400Z,12.80
2019-04-29T08:12:36.957Z,12.90
2019-04-29T08:15:09.416Z,13.00
2019-04-29T08:17:40.758Z,13.20
2019-04-29T08:20:12.125Z,13.30
2019-04-29T08:22:43.496Z,13.50
2019-04-29T08:25:14.915Z,13.70
2019-04-29T08:27:46.357Z,13.90
2019-04-29T08:30:18.329Z,14.00
2019-04-29T08:32:49.812Z,14.00
2019-04-29T08:35:21.375Z,13.90
2019-04-29T08:37:52.729Z,13.80
2019-04-29T08:40:24.151Z,13.90
2019-04-29T08:43:09.248Z,13.90
2019-04-29T08:45:44.271Z,14.00
2019-04-29T08:48:16.663Z,14.20
2019-04-29T08:50:47.994Z,14.10
2019-04-29T08:53:20.421Z,14.20
2019-04-29T08:55:51.815Z,14.40
2019-04-29T08:58:23.155Z,14.60
2019-04-29T09:00:55.728Z,14.60
2019-04-29T09:03:39.705Z,14.50
2019-04-29T09:06:05.403Z,14.40
2019-04-29T09:08:34.651Z,14.50
2019-04-29T09:11:08.053Z,14.60
2019-04-29T09:13:39.141Z,14.80
2019-04-29T09:16:10.661Z,15.00
2019-04-29T09:18:42.057Z,15.00
2019-04-29T09:21:13.388Z,15.20
2019-04-29T09:23:44.734Z,15.30
2019-04-29T09:26:28.988Z,15.40
2019-04-29T09:29:03.814Z,15.60
2019-04-29T09:31:36.563Z,15.70
2019-04-29T09:34:07.900Z,15.70
2019-04-29T09:36:39.506Z,15.70
2019-04-29T09:39:10.880Z,15.80
2019-04-29T09:41:49.986Z,15.90
2019-04-29T09:44:45.013Z,16.00
2019-04-29T09:47:16.483Z,16.10
2019-04-29T09:49:47.959Z,16.30
2019-04-29T09:52:19.364Z,16.40
2019-04-29T09:54:50.780Z,16.40
2019-04-29T09:57:22.176Z,16.30
2019-04-29T10:00:00.228Z,16.30
2019-04-29T10:03:05.240Z,16.30
2019-04-29T10:05:42.630Z,16.20
2019-04-29T10:08:14.000Z,16.20
2019-04-29T10:10:46.114Z,16.10
2019-04-29T10:13:17.477Z,15.90
2019-04-29T10:16:00.377Z,15.60
2019-04-29T10:18:47.525Z,15.60
2019-04-29T10:21:21.377Z,15.70
2019-04-29T10:23:52.055Z,15.60
2019-04-29T10:26:23.364Z,15.50
2019-04-29T10:28:59.242Z,15.50
2019-04-29T10:31:30.682Z,15.40
2019-04-29T10:34:02.036Z,15.20
2019-04-29T10:36:33.354Z,15.00
2019-04-29T10:39:27.862Z,14.70
2019-04-29T10:42:01.184Z,14.50
2019-04-29T10:44:44.830Z,14.40
2019-04-29T10:47:35.944Z,14.30
2019-04-29T10:50:15.432Z,14.00
2019-04-29T10:52:44.822Z,13.30
2019-04-29T10:55:17.361Z,12.90
2019-04-29T10:57:51.456Z,12.90
2019-04-29T11:00:52.787Z,12.90
2019-04-29T11:03:25.016Z,13.10
2019-04-29T11:06:01.724Z,13.10
2019-04-29T11:08:44.873Z,13.30
2019-04-29T11:11:24.107Z,13.30
2019-04-29T11:13:50.605Z,13.30
2019-04-29T11:16:22.936Z,13.40
2019-04-29T11:19:00.187Z,13.50
2019-04-29T11:21:31.168Z,13.70
2019-04-29T11:24:11.699Z,13.50
2019-04-29T11:27:11.614Z,13.60
2019-04-29T11:29:35.778Z,13.60
2019-04-29T11:32:12.536Z,13.70
2019-04-29T11:35:01.728Z,13.70
2019-04-29T11:37:33.235Z,13.90
2019-04-29T11:40:05.460Z,14.00
2019-04-29T11:42:41.646Z,14.00
2019-04-29T11:45:13.578Z,13.80
2019-04-29T11:47:44.649Z,13.70
2019-04-29T11:50:22.453Z,13.60
2019-04-29T11:52:55.578Z,13.40
2019-04-29T11:55:27.067Z,13.30
2019-04-29T11:58:03.613Z,13.30
2019-04-29T12:01:10.383Z,13.30
2019-04-29T12:03:43.961Z,13.10
2019-04-29T12:06:20.257Z,13.00
2019-04-29T12:08:53.335Z,12.90
2019-04-29T12:11:22.569Z,12.90
2019-04-29T12:14:11.209Z,12.90
2019-04-29T12:16:49.089Z,12.80
2019-04-29T12:19:23.931Z,12.90
2019-04-29T12:21:55.603Z,12.90
2019-04-29T12:24:27.073Z,13.00
2019-04-29T12:26:58.547Z,13.10
2019-04-29T12:29:29.925Z,13.10
2019-04-29T12:32:26.706Z,13.10
2019-04-29T12:35:26.214Z,13.00
2019-04-29T12:38:15.415Z,12.90
2019-04-29T12:41:21.178Z,12.90
2019-04-29T12:43:59.481Z,12.80
2019-04-29T12:46:37.129Z,12.70
2019-04-29T12:49:13.430Z,12.60
2019-04-29T12:51:41.532Z,12.50
2019-04-29T12:54:12.897Z,12.30
2019-04-29T12:56:47.642Z,12.10
2019-04-29T12:59:18.337Z,11.90
2019-04-29T13:02:14.053Z,11.80
2019-04-29T13:05:09.401Z,11.70
2019-04-29T13:08:10.979Z,11.60
2019-04-29T13:10:50.251Z,11.60
2019-04-29T13:13:22.133Z,11.60
2019-04-29T13:16:11.401Z,11.60
2019-04-29T13:19:11.383Z,11.40
2019-04-29T13:21:34.807Z,11.50
2019-04-29T13:24:21.753Z,11.40
2019-04-29T13:26:42.618Z,11.40
2019-04-29T13:29:26.331Z,11.50
2019-04-29T13:31:45.367Z,11.50
2019-04-29T13:34:29.256Z,11.50
2019-04-29T13:37:06.504Z,11.40
2019-04-29T13:39:39.494Z,11.50
2019-04-29T13:42:02.994Z,11.50
2019-04-29T13:44:41.711Z,11.50
2019-04-29T13:47:50.205Z,11.50
2019-04-29T13:50:38.866Z,11.60
2019-04-29T13:53:01.585Z,11.60
2019-04-29T13:55:47.954Z,11.60
2019-04-29T13:58:06.039Z,11.50
2019-04-29T14:00:55.732Z,11.50
2019-04-29T14:03:51.514Z,11.30
2019-04-29T14:06:23.029Z,11.30
2019-04-29T14:08:54.364Z,11.40
2019-04-29T14:11:27.699Z,11.40
2019-04-29T14:13:59.069Z,11.40
2019-04-29T14:16:30.675Z,11.20
2019-04-29T14:19:02.032Z,11.10
2019-04-29T14:21:33.364Z,11.00
2019-04-29T14:24:04.695Z,10.90
2019-04-29T14:26:37.053Z,10.90
2019-04-29T14:29:09.174Z,10.90
2019-04-29T14:31:40.518Z,10.90
2019-04-29T14:34:21.309Z,10.80
2019-04-29T14:36:57.455Z,10.70
2019-04-29T14:39:36.504Z,10.60
2019-04-29T14:42:02.440Z,10.60
2019-04-29T14:44:50.944Z,10.50
2019-04-29T14:47:39.720Z,10.40
2019-04-29T14:50:15.749Z,10.40
2019-04-29T14:52:44.776Z,10.30
2019-04-29T14:55:20.203Z,10.20
2019-04-29T14:57:50.624Z,10.20
2019-04-29T15:00:37.405Z,10.10
2019-04-29T15:03:08.801Z,10.10
2019-04-29T15:05:40.149Z,10.10
2019-04-29T15:08:11.492Z,10.10
2019-04-29T15:10:44.419Z,10.10
2019-04-29T15:13:21.745Z,10.10
2019-04-29T15:16:14.379Z,10.10
2019-04-29T15:19:13.152Z,10.00
2019-04-29T15:21:47.964Z,9.90
2019-04-29T15:24:19.515Z,9.90
2019-04-29T15:26:50.848Z,10.00
2019-04-29T15:29:22.248Z,10.00
2019-04-29T15:31:53.597Z,9.90
2019-04-29T15:34:24.996Z,10.00
2019-04-29T15:36:56.366Z,10.00
2019-04-29T15:39:27.778Z,9.90
2019-04-29T15:42:01.897Z,10.00
2019-04-29T15:44:32.225Z,10.00
2019-04-29T15:47:03.605Z,9.90
2019-04-29T15:49:34.971Z,9.90
2019-04-29T15:52:06.312Z,9.90
2019-04-29T15:54:39.126Z,9.90
2019-04-29T15:57:15.049Z,9.80
2019-04-29T15:59:48.905Z,9.70
2019-04-29T16:02:16.660Z,9.70
2019-04-29T16:05:04.814Z,9.70
2019-04-29T16:07:46.897Z,9.70
2019-04-29T16:10:51.674Z,9.60
2019-04-29T16:13:27.434Z,9.60
2019-04-29T16:15:55.623Z,9.50
2019-04-29T16:18:27.086Z,9.50
2019-04-29T16:20:58.431Z,9.50
2019-04-29T16:23:32.850Z,9.50
2019-04-29T16:26:02.868Z,9.50
2019-04-29T16:28:39.794Z,9.50
2019-04-29T16:31:12.317Z,9.50
2019-04-29T16:33:40.500Z,9.60
2019-04-29T16:36:12.015Z,9.60
2019-04-29T16:38:46.438Z,9.60
2019-04-29T16:41:43.723Z,9.50
2019-04-29T16:44:34.097Z,9.40
2019-04-29T16:46:49.385Z,9.40
2019-04-29T16:49:20.919Z,9.40
2019-04-29T16:51:53.477Z,9.30
2019-04-29T16:54:28.484Z,9.30
2019-04-29T16:56:58.472Z,9.20
2019-04-29T16:59:29.846Z,9.20
2019-04-29T17:02:01.335Z,9.30
2019-04-29T17:04:32.709Z,9.30
2019-04-29T17:07:12.201Z,9.30
2019-04-29T17:09:57.773Z,9.30
2019-04-29T17:12:36.446Z,9.20
2019-04-29T17:15:23.700Z,9.20
2019-04-29T17:17:42.245Z,9.10
2019-04-29T17:20:13.942Z,9.10
2019-04-29T17:22:45.342Z,9.20
2019-04-29T17:25:17.087Z,9.10
2019-04-29T17:28:24.305Z,9.10
2019-04-29T17:31:11.876Z,9.10
2019-04-29T17:33:49.837Z,9.10
2019-04-29T17:36:23.617Z,9.10
2019-04-29T17:38:51.721Z,9.10
2019-04-29T17:41:23.113Z,9.10
2019-04-29T17:44:02.950Z,9.10
2019-04-29T17:46:57.252Z,9.10
2019-04-29T17:49:47.755Z,9.00
2019-04-29T17:52:25.821Z,8.90
2019-04-29T17:55:05.063Z,8.90
2019-04-29T17:57:41.737Z,8.90
2019-04-29T18:00:43.911Z,9.00
2019-04-29T18:03:41.541Z,9.00
2019-04-29T18:06:24.123Z,9.00
2019-04-29T18:09:29.213Z,9.00
2019-04-29T18:12:05.141Z,8.90
2019-04-29T18:14:40.312Z,8.90
2019-04-29T18:17:10.656Z,8.90
2019-04-29T18:20:13.320Z,8.90
2019-04-29T18:22:57.547Z,8.90
2019-04-29T18:25:47.922Z,8.90
2019-04-29T18:28:19.386Z,8.90
2019-04-29T18:30:54.480Z,8.90
2019-04-29T18:33:29.857Z,8.80
2019-04-29T18:36:03.844Z,8.80
2019-04-29T18:38:29.945Z,8.80
2019-04-29T18:41:01.318Z,8.70
2019-04-29T18:43:32.684Z,8.70
2019-04-29T18:46:05.959Z,8.70
2019-04-29T18:48:37.336Z,8.80
2019-04-29T18:51:08.716Z,8.80
2019-04-29T18:53:40.140Z,8.70
2019-04-29T18:56:11.628Z,8.80
2019-04-29T18:58:46.835Z,8.70
2019-04-29T19:01:16.937Z,8.80
2019-04-29T19:03:59.184Z,8.80
2019-04-29T19:06:30.549Z,8.70
2019-04-29T19:09:02.809Z,8.70
2019-04-29T19:11:35.807Z,8.70
2019-04-29T19:14:07.204Z,8.70
2019-04-29T19:16:39.593Z,8.70
2019-04-29T19:19:11.161Z,8.70
2019-04-29T19:21:43.600Z,8.70
2019-04-29T19:24:16.214Z,8.70
2019-04-29T19:26:47.548Z,8.70
2019-04-29T19:29:18.908Z,8.70
2019-04-29T19:31:50.380Z,8.70
2019-04-29T19:34:21.755Z,8.80
2019-04-29T19:36:55.737Z,8.80
2019-04-29T19:39:27.118Z,8.90
2019-04-29T19:41:58.568Z,8.90
2019-04-29T19:44:33.380Z,8.90
2019-04-29T19:47:03.019Z,8.90
2019-04-29T19:49:35.965Z,8.90
2019-04-29T19:52:08.425Z,8.90
2019-04-29T19:54:39.902Z,8.90
2019-04-29T19:57:11.258Z,8.90
2019-04-29T19:59:49.849Z,8.90
2019-04-29T20:02:17.034Z,8.90
2019-04-29T20:04:56.100Z,8.90
2019-04-29T20:07:27.817Z,8.90
2019-04-29T20:10:05.135Z,9.00
2019-04-29T20:12:32.839Z,9.00
2019-04-29T20:15:07.685Z,9.00
2019-04-29T20:17:58.249Z,9.00
2019-04-29T20:20:39.761Z,9.00
2019-04-29T20:23:11.359Z,9.00
2019-04-29T20:25:42.940Z,9.00
2019-04-29T20:28:18.421Z,9.00
2019-04-29T20:30:50.319Z,9.00
2019-04-29T20:33:20.753Z,9.00
2019-04-29T20:35:52.256Z,9.00
2019-04-29T20:38:25.254Z,9.00
2019-04-29T20:40:56.895Z,9.00
2019-04-29T20:43:29.775Z,9.10
2019-04-29T20:46:02.433Z,9.10
2019-04-29T20:48:36.745Z,9.10
2019-04-29T20:51:13.571Z,9.10
2019-04-29T20:53:46.146Z,9.10
2019-04-29T20:56:24.690Z,9.10
2019-04-29T20:58:50.953Z,9.10
2019-04-29T21:01:29.190Z,9.10
2019-04-29T21:04:00.584Z,9.10
2019-04-29T21:06:32.730Z,9.10
2019-04-29T21:09:08.382Z,9.10
2019-04-29T21:11:56.666Z,9.10
2019-04-29T21:14:39.637Z,9.20
2019-04-29T21:17:11.348Z,9.20
2019-04-29T21:19:42.836Z,9.20
2019-04-29T21:22:22.242Z,9.20
2019-04-29T21:24:49.507Z,9.20
2019-04-29T21:27:22.687Z,9.20
2019-04-29T21:29:55.483Z,9.20
2019-04-29T21:32:30.550Z,9.20
2019-04-29T21:35:15.113Z,9.30
2019-04-29T21:37:54.410Z,9.20
2019-04-29T21:40:31.614Z,9.30
2019-04-29T21:43:13.449Z,9.30
2019-04-29T21:45:44.923Z,9.30
2019-04-29T21:48:16.805Z,9.30
2019-04-29T21:50:49.276Z,9.30
2019-04-29T21:53:20.631Z,9.30
2019-04-29T21:55:51.990Z,9.40
2019-04-29T21:58:23.328Z,9.40
2019-04-29T22:00:59.074Z,9.40
2019-04-29T22:03:30.556Z,9.40
2019-04-29T22:06:03.545Z,9.40
2019-04-29T22:08:35.474Z,9.30
2019-04-29T22:11:07.160Z,9.30
2019-04-29T22:13:39.144Z,9.30
2019-04-29T22:16:11.530Z,9.30
2019-04-29T22:18:44.613Z,9.40
2019-04-29T22:21:22.076Z,9.40
2019-04-29T22:23:51.350Z,9.40
2019-04-29T22:26:26.582Z,9.40
2019-04-29T22:29:01.738Z,9.40
2019-04-29T22:31:33.809Z,9.50
2019-04-29T22:34:02.452Z,9.50
2019-04-29T22:36:33.818Z,9.50
2019-04-29T22:39:06.269Z,9.50
2019-04-29T22:42:04.090Z,9.50
2019-04-29T22:44:36.713Z,9.50
2019-04-29T22:47:08.082Z,9.50
2019-04-29T22:49:39.399Z,9.50
2019-04-29T22:52:10.778Z,9.50
2019-04-29T22:54:42.140Z,9.50
2019-04-29T22:57:15.523Z,9.50
2019-04-29T22:59:49.544Z,9.50
2019-04-29T23:02:20.150Z,9.50
2019-04-29T23:04:53.785Z,9.50
2019-04-29T23:07:25.810Z,9.50
2019-04-29T23:09:57.586Z,9.50
2019-04-29T23:12:29.166Z,9.60
2019-04-29T23:15:00.507Z,9.60
2019-04-29T23:17:31.998Z,9.60
2019-04-29T23:20:12.337Z,9.60
2019-04-29T23:22:52.608Z,9.60
2019-04-29T23:25:29.897Z,9.60
2019-04-29T23:28:01.466Z,9.60
2019-04-29T23:30:33.771Z,9.70
2019-04-29T23:33:05.175Z,9.60
2019-04-29T23:35:39.696Z,9.60
2019-04-29T23:38:09.571Z,9.60
2019-04-29T23:40:41.232Z,9.70
2019-04-29T23:43:12.658Z,9.70
2019-04-29T23:45:44.988Z,9.70
2019-04-29T23:48:19.927Z,9.70
2019-04-29T23:50:49.637Z,9.70
2019-04-29T23:53:25.248Z,9.70
2019-04-29T23:55:55.601Z,9.70
2019-04-29T23:58:46.771Z,9.70
